createdAt,value
2023-02-15T00:00:26.649Z,101265.28
2023-02-15T00:02:54.304Z,101264.03
2023-02-15T00:05:22.258Z,101255.25
2023-02-15T00:07:49.917Z,101250.59
2023-02-15T00:10:18.310Z,101255.63
2023-02-15T00:12:46.025Z,101249.50
2023-02-15T00:15:14.010Z,101251.16
2023-02-15T00:17:42.997Z,101248.06
2023-02-15T00:20:11.893Z,101246.22
2023-02-15T00:22:39.856Z,101233.59
2023-02-15T00:25:08.350Z,101245.63
2023-02-15T00:27:36.336Z,101248.41
2023-02-15T00:30:04.376Z,101242.69
2023-02-15T00:32:32.385Z,101251.09
2023-02-15T00:35:01.432Z,101238.03
2023-02-15T00:37:29.057Z,101243.88
2023-02-15T00:39:56.638Z,101232.63
2023-02-15T00:42:24.259Z,101238.63
2023-02-15T00:44:51.934Z,101237.38
2023-02-15T00:47:19.724Z,101237.22
2023-02-15T00:49:47.338Z,101238.53
2023-02-15T00:52:16.416Z,101245.44
2023-02-15T00:54:44.012Z,101242.50
2023-02-15T00:57:11.688Z,101247.84
2023-02-15T00:59:39.351Z,101245.31
2023-02-15T01:02:06.945Z,101240.06
2023-02-15T01:04:34.742Z,101238.28
2023-02-15T01:07:03.010Z,101234.47
2023-02-15T01:09:32.091Z,101239.63
2023-02-15T01:11:59.776Z,101233.44
2023-02-15T01:14:27.437Z,101234.31
2023-02-15T01:16:55.135Z,101235.72
2023-02-15T01:19:22.765Z,101227.75
2023-02-15T01:21:50.377Z,101235.50
2023-02-15T01:24:18.703Z,101238.97
2023-02-15T01:26:47.789Z,101227.16
2023-02-15T01:29:15.489Z,101235.50
2023-02-15T01:31:43.366Z,101227.84
2023-02-15T01:34:11.055Z,101231.19
2023-02-15T01:36:38.807Z,101228.84
2023-02-15T01:39:06.513Z,101229.38
2023-02-15T01:41:34.311Z,101218.53
2023-02-15T01:44:05.283Z,101219.97
2023-02-15T01:46:42.566Z,101215.25
2023-02-15T01:49:15.143Z,101211.13
2023-02-15T01:51:45.604Z,101209.38
2023-02-15T01:54:20.826Z,101208.75
2023-02-15T01:56:49.132Z,101210.53
2023-02-15T01:59:23.907Z,101201.00
2023-02-15T02:01:53.854Z,101202.38
2023-02-15T02:04:27.549Z,101203.19
2023-02-15T02:06:56.030Z,101202.59
2023-02-15T02:09:23.798Z,101203.56
2023-02-15T02:11:52.902Z,101199.53
2023-02-15T02:14:23.135Z,101202.06
2023-02-15T02:16:58.933Z,101201.34
2023-02-15T02:20:14.308Z,101199.16
2023-02-15T02:23:04.432Z,101185.41
2023-02-15T02:26:18.594Z,101181.34
2023-02-15T02:29:19.181Z,101186.53
2023-02-15T02:32:18.617Z,101176.97
2023-02-15T02:34:53.340Z,101177.41
2023-02-15T02:37:26.700Z,101177.41
2023-02-15T02:40:05.015Z,101176.91
2023-02-15T02:42:40.916Z,101178.16
2023-02-15T02:45:12.868Z,101172.75
2023-02-15T02:47:45.176Z,101177.00
2023-02-15T02:50:18.777Z,101171.31
2023-02-15T02:52:48.129Z,101165.84
2023-02-15T02:55:20.065Z,101170.94
2023-02-15T02:57:55.470Z,101168.19
2023-02-15T03:00:25.450Z,101170.03
2023-02-15T03:02:59.822Z,101173.53
2023-02-15T03:05:32.217Z,101181.91
2023-02-15T03:08:07.195Z,101180.31
2023-02-15T03:10:38.423Z,101171.59
2023-02-15T03:13:06.383Z,101171.19
2023-02-15T03:15:56.793Z,101172.75
2023-02-15T03:18:27.402Z,101168.13
2023-02-15T03:20:58.145Z,101167.28
2023-02-15T03:23:29.974Z,101165.97
2023-02-15T03:26:01.374Z,101165.66
2023-02-15T03:28:33.432Z,101166.50
2023-02-15T03:31:05.125Z,101164.19
2023-02-15T03:33:33.900Z,101160.22
2023-02-15T03:36:06.749Z,101154.75
2023-02-15T03:38:42.783Z,101154.78
2023-02-15T03:41:12.144Z,101156.88
2023-02-15T03:43:51.768Z,101163.28
2023-02-15T03:46:28.834Z,101158.13
2023-02-15T03:49:00.984Z,101158.00
2023-02-15T03:51:36.994Z,101156.28
2023-02-15T03:54:09.102Z,101150.94
2023-02-15T03:56:38.149Z,101151.16
2023-02-15T03:59:23.777Z,101147.34
2023-02-15T04:02:01.624Z,101143.50
2023-02-15T04:04:35.003Z,101139.34
2023-02-15T04:07:05.497Z,101141.34
2023-02-15T04:09:50.571Z,101138.41
2023-02-15T04:12:18.504Z,101146.72
2023-02-15T04:15:03.766Z,101148.78
2023-02-15T04:17:31.703Z,101154.84
2023-02-15T04:20:16.744Z,101152.31
2023-02-15T04:23:03.817Z,101162.91
2023-02-15T04:25:31.582Z,101153.88
2023-02-15T04:27:59.469Z,101155.97
2023-02-15T04:30:28.437Z,101154.69
2023-02-15T04:32:58.213Z,101146.75
2023-02-15T04:35:26.736Z,101147.25
2023-02-15T04:37:56.869Z,101147.94
2023-02-15T04:40:24.877Z,101150.78
2023-02-15T04:42:53.144Z,101136.22
2023-02-15T04:45:20.830Z,101140.88
2023-02-15T04:47:48.478Z,101139.91
2023-02-15T04:50:16.463Z,101145.72
2023-02-15T04:52:44.229Z,101144.53
2023-02-15T04:55:13.539Z,101143.78
2023-02-15T04:57:41.160Z,101139.72
2023-02-15T05:00:10.693Z,101137.22
2023-02-15T05:02:38.837Z,101138.16
2023-02-15T05:05:07.133Z,101135.81
2023-02-15T05:07:34.729Z,101133.41
2023-02-15T05:10:02.484Z,101136.41
2023-02-15T05:12:31.594Z,101129.25
2023-02-15T05:14:59.260Z,101136.94
2023-02-15T05:17:26.909Z,101131.72
2023-02-15T05:19:54.563Z,101128.63
2023-02-15T05:22:22.149Z,101129.78
2023-02-15T05:25:07.412Z,101133.22
2023-02-15T05:27:54.455Z,101136.69
2023-02-15T05:30:22.422Z,101127.41
2023-02-15T05:32:50.190Z,101126.25
2023-02-15T05:35:18.365Z,101134.16
2023-02-15T05:37:46.032Z,101134.25
2023-02-15T05:40:14.032Z,101124.72
2023-02-15T05:42:43.001Z,101127.25
2023-02-15T05:45:11.128Z,101130.47
2023-02-15T05:47:39.113Z,101127.56
2023-02-15T05:50:08.290Z,101130.94
2023-02-15T05:52:36.202Z,101130.34
2023-02-15T05:55:05.151Z,101132.13
2023-02-15T05:57:32.871Z,101132.97
2023-02-15T06:00:02.064Z,101145.22
2023-02-15T06:02:29.759Z,101142.56
2023-02-15T06:04:57.410Z,101144.22
2023-02-15T06:07:25.178Z,101147.19
2023-02-15T06:09:52.970Z,101146.13
2023-02-15T06:12:20.612Z,101144.38
2023-02-15T06:14:48.314Z,101135.72
2023-02-15T06:17:17.658Z,101136.41
2023-02-15T06:19:45.545Z,101129.25
2023-02-15T06:22:14.933Z,101136.84
2023-02-15T06:24:44.290Z,101144.84
2023-02-15T06:27:11.973Z,101146.97
2023-02-15T06:29:39.669Z,101157.13
2023-02-15T06:32:10.239Z,101157.56
2023-02-15T06:34:39.317Z,101150.81
2023-02-15T06:37:08.993Z,101172.84
2023-02-15T06:39:36.663Z,101170.22
2023-02-15T06:42:04.531Z,101167.94
2023-02-15T06:44:32.209Z,101170.84
2023-02-15T06:46:59.916Z,101166.25
2023-02-15T06:49:27.733Z,101176.53
2023-02-15T06:51:56.748Z,101168.16
2023-02-15T06:54:24.411Z,101167.16
2023-02-15T06:56:52.073Z,101170.63
2023-02-15T06:59:19.825Z,101169.69
2023-02-15T07:01:47.632Z,101171.28
2023-02-15T07:04:15.259Z,101167.84
2023-02-15T07:06:42.949Z,101177.69
2023-02-15T07:09:13.769Z,101165.88
2023-02-15T07:11:58.936Z,101168.47
2023-02-15T07:14:28.875Z,101167.63
2023-02-15T07:16:56.614Z,101162.34
2023-02-15T07:19:24.801Z,101167.41
2023-02-15T07:21:52.500Z,101169.25
2023-02-15T07:24:21.472Z,101165.47
2023-02-15T07:26:49.139Z,101167.53
2023-02-15T07:29:17.221Z,101166.69
2023-02-15T07:31:46.316Z,101157.41
2023-02-15T07:34:14.064Z,101162.88
2023-02-15T07:36:41.771Z,101160.50
2023-02-15T07:39:09.521Z,101165.41
2023-02-15T07:41:38.851Z,101163.09
2023-02-15T07:44:06.889Z,101163.47
2023-02-15T07:46:34.656Z,101171.31
2023-02-15T07:49:02.385Z,101155.53
2023-02-15T07:51:30.146Z,101160.84
2023-02-15T07:53:57.945Z,101155.38
2023-02-15T07:56:25.660Z,101153.69
2023-02-15T07:58:56.601Z,101150.72
2023-02-15T08:01:27.380Z,101158.50
2023-02-15T08:03:56.093Z,101153.22
2023-02-15T08:06:25.874Z,101150.31
2023-02-15T08:08:54.044Z,101157.41
2023-02-15T08:11:37.499Z,101155.91
2023-02-15T08:14:08.823Z,101157.81
2023-02-15T08:16:38.795Z,101151.25
2023-02-15T08:19:08.801Z,101148.03
2023-02-15T08:21:38.575Z,101155.13
2023-02-15T08:24:07.591Z,101157.41
2023-02-15T08:26:35.880Z,101149.44
2023-02-15T08:29:09.089Z,101146.38
2023-02-15T08:31:39.101Z,101140.78
2023-02-15T08:34:07.719Z,101140.38
2023-02-15T08:36:35.799Z,101141.91
2023-02-15T08:39:07.001Z,101132.66
2023-02-15T08:41:36.489Z,101140.59
2023-02-15T08:44:06.277Z,101137.63
2023-02-15T08:46:35.719Z,101134.09
2023-02-15T08:49:05.723Z,101141.38
2023-02-15T08:51:35.837Z,101138.06
2023-02-15T08:54:07.108Z,101136.44
2023-02-15T08:56:37.100Z,101132.69
2023-02-15T08:59:07.679Z,101126.47
2023-02-15T09:01:37.184Z,101136.69
2023-02-15T09:04:09.738Z,101133.31
2023-02-15T09:06:38.547Z,101132.97
2023-02-15T09:09:06.806Z,101129.53
2023-02-15T09:11:36.949Z,101120.78
2023-02-15T09:14:06.556Z,101116.84
2023-02-15T09:16:36.348Z,101118.69
2023-02-15T09:19:06.544Z,101107.91
2023-02-15T09:21:35.517Z,101107.16
2023-02-15T09:24:06.737Z,101109.09
2023-02-15T09:26:37.054Z,101105.78
2023-02-15T09:29:05.838Z,101097.69
2023-02-15T09:31:35.766Z,101103.41
2023-02-15T09:34:03.755Z,101104.03
2023-02-15T09:36:35.924Z,101101.78
2023-02-15T09:39:09.620Z,101096.38
2023-02-15T09:42:04.511Z,101101.94
2023-02-15T09:44:48.751Z,101102.63
2023-02-15T09:47:44.410Z,101103.03
2023-02-15T09:50:22.317Z,101101.66
2023-02-15T09:53:12.231Z,101106.41
2023-02-15T09:55:53.301Z,101107.31
2023-02-15T09:58:31.640Z,101113.28
2023-02-15T10:01:07.678Z,101116.75
2023-02-15T10:03:44.996Z,101108.44
2023-02-15T10:06:33.943Z,101112.97
2023-02-15T10:09:37.080Z,101112.72
2023-02-15T10:12:36.593Z,101115.91
2023-02-15T10:15:28.610Z,101108.84
2023-02-15T10:18:13.359Z,101118.59
2023-02-15T10:20:51.739Z,101117.25
2023-02-15T10:23:37.263Z,101115.84
2023-02-15T10:26:15.147Z,101109.84
2023-02-15T10:28:48.773Z,101100.44
2023-02-15T10:31:27.415Z,101103.41
2023-02-15T10:34:15.901Z,101105.56
2023-02-15T10:36:59.545Z,101108.91
2023-02-15T10:39:32.559Z,101100.59
2023-02-15T10:42:10.161Z,101096.69
2023-02-15T10:44:52.707Z,101091.31
2023-02-15T10:47:45.608Z,101090.72
2023-02-15T10:50:27.391Z,101097.03
2023-02-15T10:53:09.090Z,101093.69
2023-02-15T10:55:48.098Z,101096.09
2023-02-15T10:58:26.721Z,101088.28
2023-02-15T11:01:02.268Z,101090.16
2023-02-15T11:03:41.279Z,101091.91
2023-02-15T11:06:11.354Z,101091.19
2023-02-15T11:08:44.360Z,101088.66
2023-02-15T11:11:17.792Z,101087.25
2023-02-15T11:13:52.885Z,101085.13
2023-02-15T11:16:24.929Z,101075.50
2023-02-15T11:18:58.276Z,101085.91
2023-02-15T11:21:30.053Z,101079.31
2023-02-15T11:23:57.936Z,101078.72
2023-02-15T11:26:31.854Z,101064.72
2023-02-15T11:29:09.655Z,101070.56
2023-02-15T11:31:45.352Z,101066.22
2023-02-15T11:34:20.899Z,101068.97
2023-02-15T11:36:53.127Z,101065.38
2023-02-15T11:39:24.155Z,101063.72
2023-02-15T11:41:57.070Z,101069.22
2023-02-15T11:44:33.559Z,101056.50
2023-02-15T11:47:02.483Z,101051.66
2023-02-15T11:49:32.936Z,101051.09
2023-02-15T11:52:04.877Z,101053.44
2023-02-15T11:54:34.596Z,101055.19
2023-02-15T11:57:13.480Z,101045.41
2023-02-15T11:59:46.304Z,101041.94
2023-02-15T12:02:19.323Z,101041.44
2023-02-15T12:04:53.223Z,101037.69
2023-02-15T12:07:26.700Z,101036.69
2023-02-15T12:10:02.461Z,101036.22
2023-02-15T12:12:32.700Z,101034.16
2023-02-15T12:15:03.782Z,101021.91
2023-02-15T12:17:34.492Z,101022.75
2023-02-15T12:20:04.582Z,101020.41
2023-02-15T12:22:36.182Z,101014.34
2023-02-15T12:25:13.322Z,101010.13
2023-02-15T12:27:45.491Z,101011.53
2023-02-15T12:30:24.187Z,101013.78
2023-02-15T12:32:57.325Z,101007.31
2023-02-15T12:35:30.908Z,101009.81
2023-02-15T12:38:04.327Z,101003.09
2023-02-15T12:40:34.443Z,101005.47
2023-02-15T12:43:08.971Z,101002.34
2023-02-15T12:45:39.595Z,100998.72
2023-02-15T12:48:17.205Z,100997.41
2023-02-15T12:50:46.375Z,100992.63
2023-02-15T12:53:20.674Z,100993.06
2023-02-15T12:55:54.214Z,100990.47
2023-02-15T12:58:26.098Z,100985.34
2023-02-15T13:01:16.691Z,100983.94
2023-02-15T13:03:59.873Z,100988.63
2023-02-15T13:06:31.039Z,100983.84
2023-02-15T13:09:07.880Z,100981.13
2023-02-15T13:11:36.360Z,100979.25
2023-02-15T13:14:17.641Z,100974.75
2023-02-15T13:16:49.363Z,100964.13
2023-02-15T13:19:19.136Z,100957.16
2023-02-15T13:21:50.220Z,100955.59
2023-02-15T13:24:24.842Z,100965.03
2023-02-15T13:27:01.003Z,100963.13
2023-02-15T13:29:39.707Z,100963.59
2023-02-15T13:32:29.869Z,100960.88
2023-02-15T13:35:00.336Z,100959.97
2023-02-15T13:38:01.556Z,100947.97
2023-02-15T13:40:37.670Z,100945.91
2023-02-15T13:43:17.361Z,100945.72
2023-02-15T13:45:57.988Z,100937.47
2023-02-15T13:48:48.322Z,100949.97
2023-02-15T13:51:24.319Z,100943.13
2023-02-15T13:54:26.056Z,100935.78
2023-02-15T13:57:07.630Z,100933.47
2023-02-15T13:59:48.493Z,100942.94
2023-02-15T14:02:46.134Z,100932.50
2023-02-15T14:05:28.616Z,100938.47
2023-02-15T14:08:03.964Z,100930.03
2023-02-15T14:10:40.396Z,100937.09
2023-02-15T14:13:38.088Z,100929.56
2023-02-15T14:16:13.843Z,100926.16
2023-02-15T14:18:47.907Z,100930.31
2023-02-15T14:21:22.652Z,100920.84
2023-02-15T14:24:03.556Z,100913.84
2023-02-15T14:26:42.678Z,100911.59
2023-02-15T14:29:22.540Z,100913.84
2023-02-15T14:31:55.888Z,100910.00
2023-02-15T14:34:29.187Z,100911.56
2023-02-15T14:36:59.821Z,100913.31
2023-02-15T14:39:56.492Z,100907.25
2023-02-15T14:42:27.701Z,100905.38
2023-02-15T14:45:03.082Z,100912.38
2023-02-15T14:47:37.493Z,100910.59
2023-02-15T14:50:38.732Z,100914.59
2023-02-15T14:53:40.148Z,100914.81
2023-02-15T14:56:19.915Z,100908.91
2023-02-15T14:59:19.783Z,100905.84
2023-02-15T15:01:58.343Z,100907.66
2023-02-15T15:04:31.202Z,100907.94
2023-02-15T15:07:12.275Z,100904.13
2023-02-15T15:09:43.933Z,100906.88
2023-02-15T15:12:34.580Z,100903.63
2023-02-15T15:15:02.839Z,100901.22
2023-02-15T15:17:56.372Z,100902.31
2023-02-15T15:20:51.501Z,100897.97
2023-02-15T15:23:50.258Z,100897.13
2023-02-15T15:26:41.743Z,100889.41
2023-02-15T15:29:09.436Z,100890.94
2023-02-15T15:31:46.607Z,100892.19
2023-02-15T15:34:24.038Z,100891.91
2023-02-15T15:37:25.775Z,100893.69
2023-02-15T15:40:32.883Z,100900.22
2023-02-15T15:43:50.613Z,100901.34
2023-02-15T15:46:51.786Z,100902.03
2023-02-15T15:49:22.360Z,100904.84
2023-02-15T15:51:51.474Z,100902.16
2023-02-15T15:54:22.147Z,100897.44
2023-02-15T15:56:54.364Z,100905.13
2023-02-15T15:59:26.966Z,100910.63
2023-02-15T16:01:54.813Z,100910.97
2023-02-15T16:04:28.253Z,100900.88
2023-02-15T16:06:56.266Z,100901.66
2023-02-15T16:09:28.461Z,100911.63
2023-02-15T16:12:01.333Z,100911.91
2023-02-15T16:14:38.125Z,100903.91
2023-02-15T16:17:10.595Z,100906.03
2023-02-15T16:19:42.581Z,100914.13
2023-02-15T16:22:16.191Z,100905.72
2023-02-15T16:25:11.932Z,100904.38
2023-02-15T16:27:42.558Z,100905.75
2023-02-15T16:30:27.732Z,100908.38
2023-02-15T16:32:57.404Z,100906.38
2023-02-15T16:35:26.222Z,100904.78
2023-02-15T16:37:53.873Z,100906.22
2023-02-15T16:40:41.041Z,100901.00
2023-02-15T16:43:16.911Z,100904.16
2023-02-15T16:45:46.537Z,100910.41
2023-02-15T16:48:21.464Z,100901.69
2023-02-15T16:50:53.203Z,100900.41
2023-02-15T16:53:25.512Z,100903.03
2023-02-15T16:55:56.258Z,100909.50
2023-02-15T16:58:30.672Z,100911.38
2023-02-15T17:01:02.049Z,100911.72
2023-02-15T17:03:30.783Z,100906.22
2023-02-15T17:06:00.204Z,100912.75
2023-02-15T17:08:32.673Z,100910.31
2023-02-15T17:11:12.341Z,100901.47
2023-02-15T17:13:40.812Z,100908.41
2023-02-15T17:16:25.684Z,100910.81
2023-02-15T17:18:54.744Z,100902.84
2023-02-15T17:21:27.818Z,100907.09
2023-02-15T17:24:01.115Z,100913.91
2023-02-15T17:26:31.658Z,100907.00
2023-02-15T17:29:01.812Z,100911.53
2023-02-15T17:31:34.295Z,100912.75
2023-02-15T17:34:03.601Z,100915.22
2023-02-15T17:36:33.195Z,100924.00
2023-02-15T17:39:05.825Z,100915.03
2023-02-15T17:41:35.216Z,100922.28
2023-02-15T17:44:04.204Z,100916.22
2023-02-15T17:46:36.557Z,100920.41
2023-02-15T17:49:05.485Z,100918.84
2023-02-15T17:51:36.825Z,100920.03
2023-02-15T17:54:23.119Z,100913.69
2023-02-15T17:56:50.771Z,100918.75
2023-02-15T17:59:20.400Z,100915.16
2023-02-15T18:02:08.815Z,100908.66
2023-02-15T18:04:55.962Z,100908.66
2023-02-15T18:07:41.761Z,100906.31
2023-02-15T18:10:34.488Z,100905.66
2023-02-15T18:13:02.133Z,100901.38
2023-02-15T18:15:30.247Z,100903.97
2023-02-15T18:17:59.682Z,100908.00
2023-02-15T18:20:37.898Z,100911.47
2023-02-15T18:23:07.479Z,100908.75
2023-02-15T18:25:35.116Z,100918.00
2023-02-15T18:28:02.846Z,100915.94
2023-02-15T18:30:30.577Z,100925.47
2023-02-15T18:33:01.761Z,100925.00
2023-02-15T18:35:35.041Z,100921.72
2023-02-15T18:38:03.078Z,100916.47
2023-02-15T18:40:31.418Z,100914.16
2023-02-15T18:42:59.328Z,100917.78
2023-02-15T18:45:32.608Z,100906.53
2023-02-15T18:48:01.877Z,100908.84
2023-02-15T18:50:33.885Z,100909.81
2023-02-15T18:53:04.391Z,100905.53
2023-02-15T18:55:33.735Z,100908.28
2023-02-15T18:58:02.366Z,100904.31
2023-02-15T19:00:33.909Z,100901.16
2023-02-15T19:03:04.000Z,100902.63
2023-02-15T19:05:33.927Z,100894.59
2023-02-15T19:08:03.375Z,100900.81
2023-02-15T19:10:33.964Z,100892.47
2023-02-15T19:13:01.586Z,100901.66
2023-02-15T19:15:31.534Z,100889.78
2023-02-15T19:17:59.292Z,100898.78
2023-02-15T19:20:38.788Z,100897.47
2023-02-15T19:28:05.775Z,100891.63
2023-02-15T19:35:09.837Z,100884.66
2023-02-15T19:38:58.213Z,100886.91
2023-02-15T19:41:35.510Z,100885.13
2023-02-15T19:44:12.108Z,100882.94
2023-02-15T19:46:45.441Z,100880.56
2023-02-15T19:49:40.525Z,100878.44
2023-02-15T19:52:30.242Z,100877.53
2023-02-15T19:55:14.216Z,100876.81
2023-02-15T19:57:48.918Z,100873.09
2023-02-15T20:00:24.644Z,100873.88
2023-02-15T20:03:43.866Z,100883.38
2023-02-15T20:29:26.412Z,100891.97
2023-02-15T20:32:49.199Z,100899.53
2023-02-15T20:36:01.009Z,100899.81
2023-02-15T20:47:05.930Z,100907.53
2023-02-15T20:55:39.764Z,100906.03
2023-02-15T20:58:47.152Z,100909.00
2023-02-15T21:05:50.797Z,100890.38
2023-02-15T21:08:21.223Z,100902.84
2023-02-15T21:10:52.961Z,100913.72
2023-02-15T21:13:26.515Z,100915.25
2023-02-15T21:15:56.530Z,100915.09
2023-02-15T21:18:27.070Z,100915.09
2023-02-15T21:20:56.913Z,100919.41
2023-02-15T21:23:27.988Z,100922.84
2023-02-15T21:25:57.716Z,100914.94
2023-02-15T21:28:33.661Z,100910.72
2023-02-15T21:31:01.489Z,100921.25
2023-02-15T21:33:29.628Z,100927.31
2023-02-15T21:35:59.024Z,100916.81
2023-02-15T21:38:30.984Z,100926.97
2023-02-15T21:41:20.267Z,100922.66
2023-02-15T21:44:05.412Z,100922.41
2023-02-15T21:46:50.412Z,100931.03
2023-02-15T21:49:18.156Z,100922.56
2023-02-15T21:52:03.631Z,100927.56
2023-02-15T21:54:31.286Z,100915.81
2023-02-15T21:57:00.812Z,100917.97
2023-02-15T21:59:28.662Z,100927.63
2023-02-15T22:01:56.700Z,100921.63
2023-02-15T22:04:26.800Z,100924.09
2023-02-15T22:06:55.066Z,100926.94
2023-02-15T22:09:24.766Z,100925.41
2023-02-15T22:11:53.482Z,100922.66
2023-02-15T22:14:37.349Z,100927.88
2023-02-15T22:17:11.205Z,100924.78
2023-02-15T22:19:38.904Z,100918.22
2023-02-15T22:22:06.558Z,100921.75
2023-02-15T22:24:34.206Z,100916.91
2023-02-15T22:27:01.985Z,100912.09
2023-02-15T22:29:31.064Z,100910.63
2023-02-15T22:31:59.412Z,100905.44
2023-02-15T22:34:29.482Z,100908.66
2023-02-15T22:36:57.812Z,100913.50
2023-02-15T22:39:26.228Z,100912.59
2023-02-15T22:41:54.630Z,100910.06
2023-02-15T22:44:26.597Z,100911.28
2023-02-15T22:46:55.934Z,100906.81
2023-02-15T22:49:23.587Z,100905.47
2023-02-15T22:51:52.255Z,100901.28
2023-02-15T22:54:20.535Z,100906.69
2023-02-15T22:56:51.238Z,100907.75
2023-02-15T22:59:23.865Z,100901.22
2023-02-15T23:01:51.755Z,100895.41
2023-02-15T23:04:22.676Z,100904.69
2023-02-15T23:06:51.513Z,100896.69
2023-02-15T23:09:19.157Z,100891.19
2023-02-15T23:11:47.086Z,100888.59
2023-02-15T23:14:27.320Z,100881.38
2023-02-15T23:16:55.107Z,100885.69
2023-02-15T23:19:24.247Z,100879.09
2023-02-15T23:21:52.087Z,100884.88
2023-02-15T23:24:22.583Z,100889.34
2023-02-15T23:26:51.637Z,100884.75
2023-02-15T23:29:22.122Z,100886.31
2023-02-15T23:31:51.662Z,100883.28
2023-02-15T23:34:21.921Z,100888.44
2023-02-15T23:36:51.189Z,100885.84
2023-02-15T23:39:39.012Z,100883.84
2023-02-15T23:42:10.774Z,100876.69
2023-02-15T23:44:39.400Z,100880.22
2023-02-15T23:47:19.143Z,100884.50
2023-02-15T23:49:46.992Z,100882.63
2023-02-15T23:52:16.093Z,100887.00
2023-02-15T23:54:43.691Z,100887.44
2023-02-15T23:57:13.390Z,100879.03
2023-02-15T23:59:44.710Z,100883.84
